Time;durP1;ratioP1;P1;durP2;ratioP2;P2;SDS_P1;SDS_P2;PMS_P1;PMS_P2;Temp;Humidity;BMP_temperature;BMP_pressure;BME280_temperature;BME280_humidity;BME280_pressure;Samples;Min_cycle;Max_cycle;Signal;HPM_P1;HPM_P2
2021/01/16 00:00:34;;;;;;;7.13;6.00;;;-0.40;99.90;;;;;;5033112;28;20504;-43
2021/01/16 00:03:00;;;;;;;8.43;6.70;;;-0.50;99.90;;;;;;5033020;28;20439;-43
2021/01/16 00:05:27;;;;;;;10.03;7.40;;;-0.60;99.90;;;;;;5032342;28;20413;-45
2021/01/16 00:08:13;;;;;;;9.10;6.90;;;-0.70;99.90;;;;;;5033053;28;20501;-43
2021/01/16 00:10:41;;;;;;;10.00;7.43;;;-0.80;99.90;;;;;;5033056;28;20481;-51
2021/01/16 00:13:10;;;;;;;8.77;6.97;;;-0.90;99.90;;;;;;5032628;28;20398;-48
2021/01/16 00:15:36;;;;;;;10.60;7.23;;;-1.00;99.90;;;;;;5032465;28;20960;-46
2021/01/16 00:18:06;;;;;;;10.63;7.77;;;-1.00;99.90;;;;;;5032517;28;20513;-43
2021/01/16 00:20:34;;;;;;;9.77;7.30;;;-1.00;99.90;;;;;;5033962;28;20245;-42
2021/01/16 00:22:59;;;;;;;9.00;6.90;;;-0.90;99.90;;;;;;5033492;28;20403;-46
2021/01/16 00:25:25;;;;;;;10.23;7.43;;;-0.90;99.90;;;;;;5032182;28;20422;-47
2021/01/16 00:27:51;;;;;;;9.57;7.43;;;-0.90;99.90;;;;;;5032956;28;20204;-48
2021/01/16 00:30:19;;;;;;;10.60;8.00;;;-0.90;99.90;;;;;;5032786;28;20450;-49
2021/01/16 00:32:45;;;;;;;10.57;7.93;;;-0.90;99.90;;;;;;5029667;28;20878;-46
2021/01/16 00:35:14;;;;;;;11.63;8.03;;;-0.90;99.90;;;;;;5017267;28;20963;-45
2021/01/16 00:37:41;;;;;;;11.03;8.27;;;-0.90;99.90;;;;;;5012076;28;20169;-45
2021/01/16 00:40:09;;;;;;;11.03;8.00;;;-0.90;99.90;;;;;;5012069;28;20462;-46
2021/01/16 00:42:46;;;;;;;10.50;8.23;;;-0.90;99.90;;;;;;5013102;28;20422;-49
2021/01/16 00:45:14;;;;;;;12.00;8.87;;;-0.90;99.90;;;;;;5013682;28;20434;-44
2021/01/16 00:47:43;;;;;;;11.57;8.50;;;-1.00;99.90;;;;;;5019027;28;20470;-46
2021/01/16 00:50:12;;;;;;;11.03;8.43;;;-1.00;99.90;;;;;;5033200;28;20407;-44
2021/01/16 00:52:38;;;;;;;12.43;9.00;;;-1.00;99.90;;;;;;5033567;28;20406;-46
2021/01/16 00:55:08;;;;;;;11.97;9.17;;;-1.00;99.90;;;;;;5033779;28;20917;-48
2021/01/16 00:57:34;;;;;;;12.33;8.53;;;-0.90;99.90;;;;;;5033649;28;20560;-45
2021/01/16 01:00:00;;;;;;;11.37;8.63;;;-0.90;99.90;;;;;;5030801;28;20466;-48
2021/01/16 01:02:25;;;;;;;13.20;9.17;;;-0.80;99.90;;;;;;5032649;28;20440;-44
2021/01/16 01:04:51;;;;;;;13.20;9.77;;;-0.80;99.90;;;;;;5033250;28;20270;-44
2021/01/16 01:07:17;;;;;;;12.33;9.20;;;-0.80;99.90;;;;;;5033081;28;20207;-47
2021/01/16 01:09:44;;;;;;;11.97;8.67;;;-0.80;99.90;;;;;;5032970;28;20518;-48
2021/01/16 01:12:11;;;;;;;11.63;9.10;;;-0.80;99.90;;;;;;5031020;28;20204;-44
2021/01/16 01:14:37;;;;;;;12.87;9.30;;;-0.70;99.90;;;;;;5032769;28;20414;-46
2021/01/16 01:17:17;;;;;;;11.93;9.10;;;-0.70;99.90;;;;;;5032843;28;20402;-44
2021/01/16 01:19:43;;;;;;;14.03;10.27;;;-0.70;99.90;;;;;;5033330;28;20430;-44
2021/01/16 01:22:09;;;;;;;11.27;8.67;;;-0.70;99.90;;;;;;5033972;28;20767;-45
2021/01/16 01:24:36;;;;;;;10.73;8.27;;;-0.70;99.90;;;;;;5031116;28;20449;-45
2021/01/16 01:27:02;;;;;;;11.90;8.83;;;-0.80;99.90;;;;;;5036261;28;20454;-47
2021/01/16 01:29:27;;;;;;;12.03;9.57;;;-0.80;99.90;;;;;;5036579;28;20499;-44
2021/01/16 01:31:53;;;;;;;11.63;9.20;;;-0.80;99.90;;;;;;5036666;28;20422;-46
2021/01/16 01:34:18;;;;;;;10.43;8.27;;;-0.80;99.90;;;;;;5036849;28;20183;-47
2021/01/16 01:36:44;;;;;;;11.83;8.73;;;-0.70;99.90;;;;;;5036848;28;20191;-45
2021/01/16 01:39:09;;;;;;;12.77;8.97;;;-0.60;99.90;;;;;;5036429;28;20195;-45
2021/01/16 01:41:38;;;;;;;11.77;8.87;;;-0.50;99.90;;;;;;5036206;28;20252;-45
2021/01/16 01:44:05;;;;;;;11.57;9.03;;;-0.50;99.90;;;;;;5036419;28;20322;-47
2021/01/16 01:46:33;;;;;;;11.07;8.43;;;-0.50;99.90;;;;;;5036044;28;20565;-45
2021/01/16 01:48:59;;;;;;;13.80;9.40;;;-0.50;99.90;;;;;;5036133;28;20572;-49
2021/01/16 01:51:27;;;;;;;14.13;9.27;;;-0.50;99.90;;;;;;5036446;28;20407;-47
2021/01/16 01:53:54;;;;;;;10.93;8.70;;;-0.60;99.90;;;;;;5037319;28;20409;-48
2021/01/16 01:56:24;;;;;;;11.37;8.40;;;-0.50;99.90;;;;;;5036472;28;20429;-47
2021/01/16 01:58:51;;;;;;;12.03;8.77;;;-0.60;99.90;;;;;;5035982;28;20528;-46
2021/01/16 02:01:18;;;;;;;12.03;8.90;;;-0.80;99.90;;;;;;5036708;28;20910;-44
2021/01/16 02:03:46;;;;;;;10.97;8.40;;;-0.80;99.90;;;;;;5036326;28;20462;-44
2021/01/16 02:06:12;;;;;;;12.33;8.33;;;-0.80;99.90;;;;;;5035671;28;20418;-47
2021/01/16 02:08:37;;;;;;;12.33;8.83;;;-0.80;99.90;;;;;;5035925;28;20434;-46
2021/01/16 02:11:03;;;;;;;11.93;8.80;;;-0.90;99.90;;;;;;5036176;28;20536;-46
2021/01/16 02:13:28;;;;;;;11.13;8.43;;;-0.90;99.90;;;;;;5036351;28;20530;-45
2021/01/16 02:16:09;;;;;;;14.10;9.30;;;-0.80;99.90;;;;;;5036137;28;20267;-45
2021/01/16 02:18:43;;;;;;;12.13;8.20;;;-0.80;99.90;;;;;;5036381;28;20199;-44
2021/01/16 02:21:16;;;;;;;10.33;7.90;;;-0.80;99.90;;;;;;5037210;28;20502;-48
2021/01/16 02:23:49;;;;;;;10.07;7.73;;;-0.80;99.90;;;;;;5036413;28;20498;-48
2021/01/16 02:26:15;;;;;;;12.03;9.10;;;-0.90;99.90;;;;;;5035592;28;20561;-48
2021/01/16 02:28:56;;;;;;;10.60;8.13;;;-0.80;99.90;;;;;;5035469;28;20470;-48
2021/01/16 02:31:26;;;;;;;11.43;8.03;;;-0.70;99.90;;;;;;5035503;28;20183;-44
2021/01/16 02:33:55;;;;;;;11.87;8.63;;;-0.70;99.90;;;;;;5036402;28;20402;-45
2021/01/16 02:36:47;;;;;;;11.47;8.67;;;-0.70;99.90;;;;;;5035265;28;20549;-44
2021/01/16 02:39:12;;;;;;;11.20;8.77;;;-0.80;99.90;;;;;;5035581;28;20914;-49
2021/01/16 02:42:02;;;;;;;11.47;8.13;;;-0.90;99.90;;;;;;5036521;28;20403;-48
2021/01/16 02:44:33;;;;;;;12.47;8.63;;;-0.90;99.90;;;;;;5035563;28;20184;-50
2021/01/16 02:47:04;;;;;;;11.30;8.43;;;-1.00;99.90;;;;;;5036092;28;20449;-45
2021/01/16 02:49:29;;;;;;;12.27;8.77;;;-1.10;99.90;;;;;;5035325;28;20786;-44
2021/01/16 02:51:57;;;;;;;12.07;8.37;;;-1.10;99.90;;;;;;5035652;28;20422;-44
2021/01/16 02:54:24;;;;;;;11.23;8.20;;;-1.10;99.90;;;;;;5036287;28;20183;-46
2021/01/16 02:56:50;;;;;;;11.37;8.30;;;-1.10;99.90;;;;;;5035455;28;20442;-45
2021/01/16 02:59:15;;;;;;;10.43;8.17;;;-1.10;99.90;;;;;;5035607;28;20434;-49
2021/01/16 03:01:42;;;;;;;12.43;9.00;;;-1.00;99.90;;;;;;5033061;28;20449;-46
2021/01/16 03:04:08;;;;;;;11.67;8.63;;;-1.10;99.90;;;;;;5036275;28;20567;-47
2021/01/16 03:06:44;;;;;;;10.30;8.13;;;-1.10;99.90;;;;;;5034312;28;20458;-44
2021/01/16 03:09:10;;;;;;;11.07;8.00;;;-1.20;99.90;;;;;;5037253;28;20201;-44
2021/01/16 03:11:36;;;;;;;11.93;8.90;;;-1.20;99.90;;;;;;5035865;28;20409;-47
2021/01/16 03:14:07;;;;;;;11.77;8.53;;;-1.20;99.90;;;;;;5038244;28;20474;-47
2021/01/16 03:16:38;;;;;;;11.47;8.70;;;-1.20;99.90;;;;;;5035279;28;20184;-48
2021/01/16 03:19:07;;;;;;;11.20;8.63;;;-1.30;99.90;;;;;;5034906;28;20481;-49
2021/01/16 03:21:39;;;;;;;10.43;7.90;;;-1.30;99.90;;;;;;5034850;28;20473;-45
2021/01/16 03:24:05;;;;;;;11.07;8.47;;;-1.30;99.90;;;;;;5035595;28;20847;-47
2021/01/16 03:26:31;;;;;;;12.37;8.03;;;-1.30;99.90;;;;;;5017302;28;20466;-46
2021/01/16 03:28:56;;;;;;;11.10;8.30;;;-1.20;99.90;;;;;;5034369;28;20492;-44
2021/01/16 03:31:22;;;;;;;10.87;8.20;;;-1.30;99.90;;;;;;5035277;28;20254;-44
2021/01/16 03:33:47;;;;;;;10.80;8.37;;;-1.20;99.90;;;;;;5035818;28;20329;-47
2021/01/16 03:36:13;;;;;;;10.33;8.00;;;-1.30;99.90;;;;;;5034409;28;20574;-44
2021/01/16 03:38:38;;;;;;;11.73;8.93;;;-1.20;99.90;;;;;;5017555;28;20219;-46
2021/01/16 03:41:04;;;;;;;11.30;8.50;;;-1.20;99.90;;;;;;5035958;28;20176;-44
2021/01/16 03:43:29;;;;;;;12.20;8.57;;;-1.20;99.90;;;;;;5037328;28;20180;-44
2021/01/16 03:45:55;;;;;;;12.33;8.37;;;-1.20;99.90;;;;;;5032620;28;20591;-46
2021/01/16 03:48:21;;;;;;;9.30;7.60;;;-1.20;99.90;;;;;;5032969;28;20556;-47
2021/01/16 03:50:46;;;;;;;10.30;8.27;;;-1.20;99.90;;;;;;5034595;28;20203;-48
2021/01/16 03:53:12;;;;;;;11.20;8.07;;;-1.20;99.90;;;;;;5033976;28;20176;-47
2021/01/16 03:55:37;;;;;;;10.60;7.63;;;-1.20;99.90;;;;;;5035488;28;20172;-44
2021/01/16 03:58:03;;;;;;;10.70;7.30;;;-1.20;99.90;;;;;;5034507;28;20211;-44
2021/01/16 04:00:28;;;;;;;9.87;7.63;;;-1.20;99.90;;;;;;5034995;28;20183;-44
2021/01/16 04:02:54;;;;;;;10.43;7.70;;;-1.20;99.90;;;;;;5035824;28;20192;-47
2021/01/16 04:05:19;;;;;;;10.37;7.87;;;-1.20;99.90;;;;;;5032390;28;20519;-53
2021/01/16 04:07:49;;;;;;;10.40;7.87;;;-1.30;99.90;;;;;;5033674;28;20215;-49
2021/01/16 04:10:15;;;;;;;9.83;7.73;;;-1.30;99.90;;;;;;5034099;28;20482;-50
2021/01/16 04:12:40;;;;;;;10.63;7.60;;;-1.40;99.90;;;;;;5033958;28;20902;-47
2021/01/16 04:15:07;;;;;;;10.27;7.60;;;-1.40;99.90;;;;;;5032045;28;20203;-45
2021/01/16 04:17:32;;;;;;;10.03;7.83;;;-1.30;99.90;;;;;;5034905;28;20179;-46
2021/01/16 04:19:58;;;;;;;9.80;7.60;;;-1.30;99.90;;;;;;5031326;28;20457;-45
2021/01/16 04:22:23;;;;;;;9.70;7.30;;;-1.30;99.90;;;;;;5033616;28;20179;-49
2021/01/16 04:24:49;;;;;;;10.50;7.77;;;-1.40;99.90;;;;;;5034404;28;20187;-52
2021/01/16 04:27:14;;;;;;;9.83;7.23;;;-1.40;99.90;;;;;;5015808;28;20208;-50
2021/01/16 04:29:40;;;;;;;10.50;7.90;;;-1.40;99.90;;;;;;5027130;28;20228;-45
2021/01/16 04:32:05;;;;;;;10.50;7.40;;;-1.50;99.90;;;;;;5029938;28;20228;-45
2021/01/16 04:34:31;;;;;;;9.77;7.27;;;-1.50;99.90;;;;;;5034924;28;20184;-45
2021/01/16 04:36:58;;;;;;;9.23;7.00;;;-1.50;99.90;;;;;;5033228;28;20179;-44
2021/01/16 04:39:23;;;;;;;9.67;7.50;;;-1.60;99.90;;;;;;5008079;28;20219;-47
2021/01/16 04:41:51;;;;;;;10.10;7.00;;;-1.60;99.90;;;;;;5034002;28;20423;-54
2021/01/16 04:44:21;;;;;;;8.73;6.87;;;-1.60;99.90;;;;;;5015278;28;20184;-44
2021/01/16 04:46:49;;;;;;;9.20;6.80;;;-1.50;99.90;;;;;;5031123;28;20454;-44
2021/01/16 04:49:17;;;;;;;9.37;6.83;;;-1.50;99.90;;;;;;5033393;28;20521;-44
2021/01/16 04:51:47;;;;;;;9.60;7.23;;;-1.60;99.90;;;;;;5012756;28;20442;-46
2021/01/16 04:54:15;;;;;;;9.30;6.73;;;-1.60;99.90;;;;;;5033002;28;20909;-43
2021/01/16 04:56:41;;;;;;;8.83;6.67;;;-1.60;99.90;;;;;;5034179;28;20414;-44
2021/01/16 04:59:07;;;;;;;9.30;6.37;;;-1.60;99.90;;;;;;5035964;28;20469;-51
2021/01/16 05:01:33;;;;;;;9.33;6.77;;;-1.60;99.90;;;;;;5037881;28;20187;-45
2021/01/16 05:03:59;;;;;;;9.17;6.53;;;-1.60;99.90;;;;;;5037480;28;20434;-45
2021/01/16 05:06:27;;;;;;;8.17;6.20;;;-1.60;99.90;;;;;;5038988;28;20203;-45
2021/01/16 05:08:54;;;;;;;8.13;6.50;;;-1.50;99.90;;;;;;5038029;28;20282;-45
2021/01/16 05:11:25;;;;;;;9.23;6.63;;;-1.50;99.90;;;;;;5038258;28;20481;-49
2021/01/16 05:14:11;;;;;;;9.83;6.67;;;-1.50;99.90;;;;;;5038174;28;20472;-47
2021/01/16 05:16:56;;;;;;;7.97;5.87;;;-1.40;99.90;;;;;;5038063;28;20505;-45
2021/01/16 05:19:32;;;;;;;9.27;6.73;;;-1.40;99.90;;;;;;5037812;28;20445;-45
2021/01/16 05:21:59;;;;;;;8.60;6.37;;;-1.40;99.90;;;;;;5037408;28;20402;-45
2021/01/16 05:24:24;;;;;;;8.77;6.57;;;-1.40;99.90;;;;;;5037691;28;20905;-46
2021/01/16 05:26:53;;;;;;;9.67;7.17;;;-1.40;99.90;;;;;;5037403;28;20450;-46
2021/01/16 05:29:21;;;;;;;8.97;6.47;;;-1.50;99.90;;;;;;5020398;28;20195;-45
2021/01/16 05:31:48;;;;;;;10.30;7.23;;;-1.60;99.90;;;;;;5037110;28;20409;-46
2021/01/16 05:34:14;;;;;;;10.87;6.43;;;-1.50;99.90;;;;;;5037909;28;20874;-49
2021/01/16 05:36:47;;;;;;;10.43;6.97;;;-1.60;99.90;;;;;;5037645;28;20426;-46
2021/01/16 05:39:14;;;;;;;8.30;6.33;;;-1.50;99.90;;;;;;5038273;28;20445;-44
2021/01/16 05:41:41;;;;;;;9.13;6.57;;;-1.50;99.90;;;;;;5038865;28;20446;-49
2021/01/16 05:44:08;;;;;;;9.17;6.80;;;-1.50;99.90;;;;;;5038559;28;20460;-45
2021/01/16 05:46:35;;;;;;;8.87;6.90;;;-1.40;99.90;;;;;;5036929;28;20457;-49
2021/01/16 05:49:01;;;;;;;9.20;6.60;;;-1.30;99.90;;;;;;5037534;28;20433;-48
2021/01/16 05:51:28;;;;;;;8.50;6.70;;;-1.30;99.90;;;;;;5036482;28;20415;-52
2021/01/16 05:53:54;;;;;;;8.33;6.17;;;-1.20;99.90;;;;;;5037794;28;20259;-44
2021/01/16 05:56:20;;;;;;;8.63;6.20;;;-1.30;99.90;;;;;;5036758;28;20909;-43
2021/01/16 05:58:47;;;;;;;9.20;6.73;;;-1.20;99.90;;;;;;5036044;28;20430;-43
2021/01/16 06:01:23;;;;;;;8.47;6.30;;;-1.30;99.90;;;;;;5036929;28;20410;-44
2021/01/16 06:03:53;;;;;;;8.00;6.00;;;-1.30;99.90;;;;;;5036575;28;20862;-44
2021/01/16 06:06:19;;;;;;;9.23;6.23;;;-1.30;99.90;;;;;;5036471;28;20402;-45
2021/01/16 06:08:55;;;;;;;11.97;7.60;;;-1.30;99.90;;;;;;5036301;28;20830;-44
2021/01/16 06:11:21;;;;;;;9.07;6.80;;;-1.40;99.90;;;;;;5035900;28;20267;-45
2021/01/16 06:13:48;;;;;;;9.70;7.33;;;-1.50;99.90;;;;;;5038140;28;20403;-46
2021/01/16 06:16:20;;;;;;;8.70;6.87;;;-1.50;99.90;;;;;;5038757;28;20164;-47
2021/01/16 06:18:47;;;;;;;11.13;7.93;;;-1.50;99.90;;;;;;5035545;28;20856;-45
2021/01/16 06:21:22;;;;;;;9.03;6.70;;;-1.40;99.90;;;;;;5034346;28;20435;-44
2021/01/16 06:23:52;;;;;;;10.60;7.67;;;-1.40;99.90;;;;;;5035729;28;20418;-49
2021/01/16 06:26:20;;;;;;;10.60;7.40;;;-1.50;99.90;;;;;;5035926;28;20509;-43
2021/01/16 06:29:03;;;;;;;11.50;8.23;;;-1.60;99.90;;;;;;5036822;28;20542;-45
2021/01/16 06:31:33;;;;;;;9.50;7.23;;;-1.70;99.90;;;;;;5035796;28;20411;-45
2021/01/16 06:34:08;;;;;;;11.80;7.97;;;-1.80;99.90;;;;;;5035945;28;20413;-48
2021/01/16 06:36:34;;;;;;;10.43;7.97;;;-1.80;99.90;;;;;;5013285;28;20942;-48
2021/01/16 06:39:04;;;;;;;10.77;7.43;;;-1.80;99.90;;;;;;5035809;28;20457;-46
2021/01/16 06:41:32;;;;;;;10.90;7.97;;;-1.90;99.90;;;;;;5035471;28;20777;-50
2021/01/16 06:43:59;;;;;;;10.07;7.50;;;-1.80;99.90;;;;;;5033765;28;20504;-46
2021/01/16 06:46:41;;;;;;;12.00;8.43;;;-1.90;99.90;;;;;;5033646;28;20520;-47
2021/01/16 06:49:16;;;;;;;10.93;7.90;;;-1.90;99.90;;;;;;5027198;28;20458;-46
2021/01/16 06:51:43;;;;;;;10.23;7.70;;;-2.00;99.90;;;;;;5034049;28;20418;-45
2021/01/16 06:54:09;;;;;;;10.87;7.97;;;-1.90;99.90;;;;;;5034477;28;20427;-45
2021/01/16 06:56:39;;;;;;;12.30;9.03;;;-1.80;99.90;;;;;;5033097;28;20448;-47
2021/01/16 06:59:13;;;;;;;11.47;8.70;;;-1.80;99.90;;;;;;5031702;28;20269;-49
2021/01/16 07:01:41;;;;;;;13.07;9.83;;;-1.80;99.90;;;;;;5034338;28;20414;-45
2021/01/16 07:04:12;;;;;;;12.70;9.27;;;-1.80;99.90;;;;;;5034586;28;20444;-47
2021/01/16 07:06:45;;;;;;;11.77;8.80;;;-1.80;99.90;;;;;;5035652;28;20458;-44
2021/01/16 07:09:21;;;;;;;13.83;9.37;;;-1.80;99.90;;;;;;5034778;28;20426;-47
2021/01/16 07:11:53;;;;;;;11.87;8.93;;;-1.80;99.90;;;;;;5033182;28;20441;-44
2021/01/16 07:14:20;;;;;;;13.07;9.37;;;-1.80;99.90;;;;;;5034930;28;20418;-43
2021/01/16 07:16:49;;;;;;;13.73;9.73;;;-1.90;99.90;;;;;;5031319;28;20415;-48
2021/01/16 07:19:22;;;;;;;15.20;10.13;;;-1.80;99.90;;;;;;5034046;28;20446;-45
2021/01/16 07:21:49;;;;;;;13.27;9.30;;;-1.80;99.90;;;;;;5033603;28;20469;-44
2021/01/16 07:24:16;;;;;;;14.30;9.97;;;-1.80;99.90;;;;;;5034005;28;20510;-44
2021/01/16 07:26:50;;;;;;;14.07;9.93;;;-1.80;99.90;;;;;;5023798;28;20442;-47
2021/01/16 07:29:16;;;;;;;13.17;9.13;;;-1.70;99.90;;;;;;5026325;28;20497;-45
2021/01/16 07:31:46;;;;;;;13.33;9.60;;;-1.60;99.90;;;;;;5033449;28;20446;-46
2021/01/16 07:34:15;;;;;;;13.83;9.80;;;-1.50;99.90;;;;;;5033596;28;20172;-44
2021/01/16 07:36:41;;;;;;;13.83;10.30;;;-1.40;99.90;;;;;;5033905;28;20422;-43
2021/01/16 07:39:09;;;;;;;14.13;10.20;;;-1.30;99.90;;;;;;5033824;28;20442;-45
2021/01/16 07:41:37;;;;;;;15.03;10.20;;;-1.30;99.90;;;;;;5028467;28;20636;-45
2021/01/16 07:44:04;;;;;;;14.23;10.23;;;-1.30;99.90;;;;;;5022764;28;20425;-45
2021/01/16 07:46:30;;;;;;;14.37;10.07;;;-1.30;99.90;;;;;;5030672;28;20450;-46
2021/01/16 07:48:58;;;;;;;15.13;10.77;;;-1.30;99.90;;;;;;5029461;28;20452;-49
2021/01/16 07:51:35;;;;;;;13.73;10.20;;;-1.30;99.90;;;;;;5020823;28;20446;-47
2021/01/16 07:54:09;;;;;;;15.47;10.70;;;-1.30;99.90;;;;;;5030575;28;20790;-46
2021/01/16 07:56:37;;;;;;;15.07;10.67;;;-1.30;99.90;;;;;;5026987;28;20422;-44
2021/01/16 07:59:30;;;;;;;14.23;10.23;;;-1.20;99.90;;;;;;5023269;28;20794;-48
2021/01/16 08:02:30;;;;;;;16.07;10.93;;;-1.20;99.90;;;;;;5030120;28;20481;-44
2021/01/16 08:05:03;;;;;;;14.77;11.13;;;-1.10;99.90;;;;;;5008993;28;20500;-46
2021/01/16 08:08:14;;;;;;;19.03;11.40;;;-1.00;99.90;;;;;;5020943;28;20500;-46
2021/01/16 08:10:42;;;;;;;15.30;10.77;;;-1.00;99.90;;;;;;5010379;28;20435;-44
2021/01/16 08:13:11;;;;;;;16.17;10.20;;;-1.00;99.90;;;;;;5024949;28;20786;-47
2021/01/16 08:15:41;;;;;;;14.20;10.33;;;-1.00;99.90;;;;;;5033368;28;20832;-47
2021/01/16 08:18:12;;;;;;;13.97;10.10;;;-1.00;99.90;;;;;;5030157;28;20442;-46
2021/01/16 08:20:44;;;;;;;15.07;10.97;;;-0.90;99.90;;;;;;5032682;28;20758;-46
2021/01/16 08:23:11;;;;;;;16.47;11.70;;;-0.80;99.90;;;;;;5031384;28;20426;-47
2021/01/16 08:25:36;;;;;;;15.57;11.13;;;-0.80;99.90;;;;;;5030282;28;20953;-45
2021/01/16 08:28:04;;;;;;;16.33;10.87;;;-0.90;99.90;;;;;;5033715;28;20519;-45
2021/01/16 08:30:32;;;;;;;16.07;11.50;;;-1.00;99.90;;;;;;5031788;28;20318;-46
2021/01/16 08:33:10;;;;;;;15.40;10.90;;;-1.10;99.90;;;;;;5028448;28;20790;-43
2021/01/16 08:35:42;;;;;;;17.73;11.57;;;-1.10;99.90;;;;;;5035480;28;20834;-50
2021/01/16 08:38:19;;;;;;;16.50;11.17;;;-1.20;99.90;;;;;;5033811;28;20468;-46
2021/01/16 08:41:03;;;;;;;17.03;12.37;;;-1.20;99.90;;;;;;5039316;28;20425;-47
2021/01/16 08:43:39;;;;;;;16.60;12.13;;;-1.20;99.90;;;;;;5039974;28;20414;-46
2021/01/16 08:46:12;;;;;;;16.43;11.97;;;-1.20;99.90;;;;;;5040960;28;20437;-45
2021/01/16 08:48:39;;;;;;;16.50;11.47;;;-1.30;99.90;;;;;;5037462;28;20426;-45
2021/01/16 08:51:34;;;;;;;16.27;11.60;;;-1.30;99.90;;;;;;5039348;28;20407;-45
2021/01/16 08:54:05;;;;;;;16.77;11.80;;;-1.20;99.90;;;;;;5033951;28;20935;-48
2021/01/16 08:56:31;;;;;;;17.40;12.37;;;-1.10;99.90;;;;;;5032248;28;20419;-47
2021/01/16 08:58:57;;;;;;;17.13;11.70;;;-1.10;99.90;;;;;;5039529;28;20442;-45
2021/01/16 09:01:24;;;;;;;16.40;11.83;;;-1.00;99.90;;;;;;5038612;28;20642;-44
2021/01/16 09:04:13;;;;;;;17.07;12.07;;;-0.90;99.90;;;;;;5034271;28;20435;-44
2021/01/16 09:06:39;;;;;;;17.80;12.33;;;-0.90;99.90;;;;;;5019044;28;20962;-45
2021/01/16 09:09:04;;;;;;;16.83;11.80;;;-0.90;99.90;;;;;;5039027;28;20479;-46
2021/01/16 09:11:30;;;;;;;15.30;10.73;;;-0.90;99.90;;;;;;5038468;28;20202;-44
2021/01/16 09:13:56;;;;;;;16.77;11.30;;;-0.90;99.90;;;;;;5038912;28;20195;-46
2021/01/16 09:16:34;;;;;;;16.20;11.70;;;-0.80;99.90;;;;;;5038049;28;20202;-44
2021/01/16 09:19:00;;;;;;;15.90;11.70;;;-0.80;99.90;;;;;;5040221;28;20509;-46
2021/01/16 09:21:27;;;;;;;18.37;11.77;;;-0.80;99.90;;;;;;5039678;28;20406;-46
2021/01/16 09:23:55;;;;;;;14.83;10.60;;;-0.80;99.90;;;;;;5040306;28;20246;-46
2021/01/16 09:26:21;;;;;;;15.23;11.07;;;-0.60;99.90;;;;;;5035798;28;20837;-46
2021/01/16 09:28:49;;;;;;;16.73;10.83;;;-0.70;99.90;;;;;;5037280;28;20445;-50
2021/01/16 09:31:41;;;;;;;16.07;11.47;;;-0.70;99.90;;;;;;5037490;28;20399;-45
2021/01/16 09:34:11;;;;;;;14.60;10.37;;;-0.70;99.90;;;;;;5030357;28;20766;-45
2021/01/16 09:36:42;;;;;;;17.43;12.10;;;-0.80;99.90;;;;;;5036295;28;20405;-45
2021/01/16 09:39:27;;;;;;;17.07;11.30;;;-0.90;99.90;;;;;;5023279;28;20564;-45
2021/01/16 09:41:55;;;;;;;15.77;10.97;;;-0.90;99.90;;;;;;5035179;28;20466;-47
2021/01/16 09:44:39;;;;;;;17.57;12.30;;;-0.90;99.90;;;;;;5033177;28;20442;-45
2021/01/16 09:47:23;;;;;;;16.30;11.40;;;-0.90;99.90;;;;;;5026198;28;20473;-47
2021/01/16 09:49:49;;;;;;;15.27;11.17;;;-0.80;99.90;;;;;;5036982;28;20434;-44
2021/01/16 09:52:15;;;;;;;17.17;11.40;;;-0.90;99.90;;;;;;5031113;28;20422;-45
2021/01/16 09:54:42;;;;;;;14.80;11.40;;;-0.90;99.90;;;;;;5036129;28;20267;-44
2021/01/16 09:57:08;;;;;;;15.30;11.47;;;-0.90;99.90;;;;;;5035257;28;20430;-47
2021/01/16 09:59:34;;;;;;;16.03;11.67;;;-0.90;99.90;;;;;;5033405;28;20442;-43
2021/01/16 10:02:12;;;;;;;15.13;11.20;;;-0.90;99.90;;;;;;5032095;28;20438;-46
2021/01/16 10:04:39;;;;;;;17.13;11.33;;;-0.90;99.90;;;;;;5034552;28;20306;-48
2021/01/16 10:07:13;;;;;;;14.73;11.00;;;-1.00;99.90;;;;;;5036897;28;20541;-44
2021/01/16 10:09:49;;;;;;;15.47;11.43;;;-1.10;99.90;;;;;;5038109;28;20458;-45
2021/01/16 10:12:40;;;;;;;18.33;12.40;;;-1.10;99.90;;;;;;5016354;28;20763;-51
2021/01/16 10:15:08;;;;;;;15.87;11.97;;;-1.10;99.90;;;;;;5017815;28;20396;-48
2021/01/16 10:17:34;;;;;;;15.87;11.77;;;-1.00;99.90;;;;;;5016533;28;20502;-45
2021/01/16 10:20:07;;;;;;;17.30;12.03;;;-1.00;99.90;;;;;;5030698;28;20418;-46
2021/01/16 10:22:34;;;;;;;16.87;11.73;;;-1.00;99.90;;;;;;5036074;28;20395;-44
2021/01/16 10:25:01;;;;;;;15.53;11.63;;;-1.00;99.90;;;;;;5035707;28;20461;-44
2021/01/16 10:27:46;;;;;;;16.50;12.03;;;-1.00;99.90;;;;;;5035389;28;20852;-48
2021/01/16 10:30:32;;;;;;;18.53;12.27;;;-1.00;99.90;;;;;;5034823;28;20402;-45
2021/01/16 10:32:59;;;;;;;17.83;11.83;;;-0.90;99.90;;;;;;5036407;28;20434;-51
2021/01/16 10:35:26;;;;;;;16.50;11.10;;;-0.90;99.90;;;;;;5034635;28;20456;-47
2021/01/16 10:37:54;;;;;;;17.37;11.63;;;-0.80;99.90;;;;;;5035468;28;20450;-49
2021/01/16 10:40:22;;;;;;;16.20;12.13;;;-0.70;99.90;;;;;;5035168;28;20414;-49
2021/01/16 10:42:50;;;;;;;17.73;11.97;;;-0.70;99.90;;;;;;5035544;28;20446;-45
2021/01/16 10:45:19;;;;;;;15.33;11.50;;;-0.60;99.90;;;;;;5034245;28;20426;-44
2021/01/16 10:47:47;;;;;;;15.67;11.37;;;-0.50;99.90;;;;;;5034654;28;20565;-46
2021/01/16 10:50:17;;;;;;;16.70;10.83;;;-0.40;99.90;;;;;;5017413;28;20401;-47
2021/01/16 10:52:43;;;;;;;18.70;11.17;;;-0.40;99.90;;;;;;5035843;28;20422;-46
2021/01/16 10:55:11;;;;;;;14.67;11.00;;;-0.40;99.90;;;;;;5037150;28;20420;-46
2021/01/16 10:57:49;;;;;;;13.87;10.30;;;-0.30;99.90;;;;;;5034730;28;20434;-45
2021/01/16 11:00:17;;;;;;;13.83;10.37;;;-0.30;99.90;;;;;;5035466;28;20410;-47
2021/01/16 11:02:50;;;;;;;12.57;9.50;;;-0.30;99.90;;;;;;5031839;28;20553;-49
2021/01/16 11:05:16;;;;;;;13.10;10.33;;;-0.40;99.90;;;;;;5035816;28;20410;-46
2021/01/16 11:07:43;;;;;;;14.63;11.10;;;-0.40;99.90;;;;;;5027302;28;20493;-46
2021/01/16 11:10:10;;;;;;;14.37;10.40;;;-0.40;99.90;;;;;;5016853;28;20278;-45
2021/01/16 11:12:37;;;;;;;13.97;10.60;;;-0.30;99.90;;;;;;5027875;28;20435;-47
2021/01/16 11:15:23;;;;;;;14.80;11.30;;;-0.30;99.90;;;;;;5017086;28;20419;-47
2021/01/16 11:17:52;;;;;;;13.10;10.03;;;-0.30;99.90;;;;;;5032163;28;20407;-49
2021/01/16 11:20:31;;;;;;;15.27;10.97;;;-0.50;99.90;;;;;;5033202;28;20414;-46
2021/01/16 11:23:29;;;;;;;13.43;10.37;;;-0.70;99.90;;;;;;5031459;28;20430;-53
2021/01/16 11:25:56;;;;;;;16.07;11.13;;;-0.60;99.90;;;;;;5032958;28;20556;-45
2021/01/16 11:28:28;;;;;;;14.90;11.07;;;-0.60;99.90;;;;;;5030173;28;20466;-49
2021/01/16 11:31:05;;;;;;;15.13;10.50;;;-0.60;99.90;;;;;;5027122;28;20433;-46
2021/01/16 11:33:31;;;;;;;12.43;9.77;;;-0.60;99.90;;;;;;5032672;28;20437;-48
2021/01/16 11:36:03;;;;;;;16.20;11.73;;;-0.50;99.90;;;;;;5033323;28;20914;-51
2021/01/16 11:38:49;;;;;;;15.93;11.00;;;-0.40;99.90;;;;;;5030582;28;20237;-48
2021/01/16 11:41:52;;;;;;;13.70;10.27;;;-0.30;99.90;;;;;;5030566;28;20945;-45
2021/01/16 11:44:18;;;;;;;14.07;10.80;;;-0.20;99.90;;;;;;5033316;28;20975;-45
2021/01/16 11:46:46;;;;;;;14.77;10.13;;;-0.20;99.90;;;;;;5026800;28;20521;-45
2021/01/16 11:49:13;;;;;;;15.17;10.47;;;-0.20;99.90;;;;;;5029775;28;20469;-46
2021/01/16 11:51:39;;;;;;;13.47;10.13;;;-0.30;99.90;;;;;;5032714;28;20960;-46
2021/01/16 11:54:04;;;;;;;13.87;10.00;;;-0.30;99.90;;;;;;5030879;28;20469;-51
2021/01/16 11:56:31;;;;;;;13.83;10.27;;;-0.30;99.90;;;;;;5013959;28;20172;-46
2021/01/16 11:58:56;;;;;;;13.27;9.70;;;-0.20;99.90;;;;;;5027095;28;20801;-47
2021/01/16 12:01:22;;;;;;;14.90;10.53;;;-0.30;99.90;;;;;;5032030;28;20431;-46
2021/01/16 12:03:48;;;;;;;13.63;10.27;;;-0.20;99.90;;;;;;5031756;28;20227;-47
2021/01/16 12:06:18;;;;;;;14.00;10.43;;;-0.30;99.90;;;;;;5033537;28;20172;-47
2021/01/16 12:08:46;;;;;;;14.03;10.07;;;-0.50;99.90;;;;;;5028370;28;20243;-45
2021/01/16 12:11:15;;;;;;;13.37;10.03;;;-0.50;99.90;;;;;;5034357;28;20403;-48
2021/01/16 12:13:42;;;;;;;15.13;9.83;;;-0.40;99.90;;;;;;5029474;28;20414;-48
2021/01/16 12:16:12;;;;;;;16.40;10.27;;;-0.30;99.90;;;;;;5027648;28;20828;-44
2021/01/16 12:18:39;;;;;;;13.47;10.23;;;-0.20;99.90;;;;;;5032439;28;20430;-46
2021/01/16 12:21:07;;;;;;;12.33;9.67;;;-0.10;99.90;;;;;;5014479;28;20415;-48
2021/01/16 12:23:46;;;;;;;15.97;10.60;;;-0.10;99.90;;;;;;5033302;28;20759;-48
2021/01/16 12:26:15;;;;;;;15.17;11.30;;;-0.10;99.90;;;;;;5028388;28;20440;-45
2021/01/16 12:28:46;;;;;;;14.57;10.27;;;-0.10;99.90;;;;;;5031166;28;20461;-46
2021/01/16 12:31:24;;;;;;;14.83;10.67;;;-0.10;99.90;;;;;;5029430;28;20477;-44
2021/01/16 12:33:50;;;;;;;17.67;10.67;;;-0.10;99.90;;;;;;5032489;28;20449;-44
2021/01/16 12:36:17;;;;;;;14.23;9.90;;;0.00;99.90;;;;;;5033226;28;20414;-45
2021/01/16 12:38:50;;;;;;;13.63;10.27;;;0.00;99.90;;;;;;5029630;28;20958;-48
2021/01/16 12:41:23;;;;;;;14.27;10.17;;;0.70;99.90;;;;;;5023487;28;20431;-47
2021/01/16 12:43:50;;;;;;;13.30;8.93;;;0.20;99.90;;;;;;5033119;28;20419;-50
2021/01/16 12:46:17;;;;;;;13.73;9.83;;;0.10;99.90;;;;;;5015938;28;20450;-47
2021/01/16 12:48:43;;;;;;;13.07;9.87;;;0.10;99.90;;;;;;5013849;28;20435;-44